Time;durP1;ratioP1;P1;durP2;ratioP2;P2;SDS_P1;SDS_P2;PMS_P1;PMS_P2;Temp;Humidity;BMP_temperature;BMP_pressure;BME280_temperature;BME280_humidity;BME280_pressure;Samples;Min_cycle;Max_cycle;Signal;HPM_P1;HPM_P2
2022/12/18 00:01:17;;;;;;;17.00;16.10;;;;;;;11.43;80.21;100714.28;5061036;28;20045;-62
2022/12/18 00:03:44;;;;;;;18.97;17.47;;;;;;;11.44;79.83;100705.59;5069261;28;20067;-62
2022/12/18 00:06:13;;;;;;;16.93;15.93;;;;;;;11.66;79.59;100724.84;5070944;28;20052;-62
2022/12/18 00:08:41;;;;;;;20.70;15.03;;;;;;;11.70;79.11;100716.72;5053745;28;20571;-63
2022/12/18 00:11:13;;;;;;;16.17;15.23;;;;;;;11.74;78.88;100729.03;5062935;28;20444;-63
2022/12/18 00:13:41;;;;;;;19.77;17.10;;;;;;;11.76;78.75;100740.75;5062726;28;20063;-62
2022/12/18 00:16:13;;;;;;;17.47;16.30;;;;;;;11.85;78.36;100761.47;5061752;28;20044;-62
2022/12/18 00:18:41;;;;;;;18.50;17.40;;;;;;;11.89;78.53;100756.97;5062250;28;20090;-62
2022/12/18 00:21:10;;;;;;;15.60;14.60;;;;;;;12.01;78.07;100765.91;5063724;28;20044;-61
2022/12/18 00:23:38;;;;;;;16.37;15.30;;;;;;;12.08;77.77;100765.59;5057265;28;20063;-62
2022/12/18 00:26:09;;;;;;;16.90;15.80;;;;;;;12.14;77.52;100758.03;5052950;28;20056;-61
2022/12/18 00:28:36;;;;;;;15.57;14.50;;;;;;;12.18;77.49;100762.75;5065658;28;20064;-61
2022/12/18 00:31:05;;;;;;;16.40;15.20;;;;;;;12.29;77.24;100764.38;5041379;28;20521;-61
2022/12/18 00:33:32;;;;;;;15.03;14.03;;;;;;;12.31;76.98;100764.13;5062741;28;20059;-62
2022/12/18 00:36:14;;;;;;;15.67;14.73;;;;;;;12.41;76.51;100766.00;5060016;28;20411;-61
2022/12/18 00:38:42;;;;;;;17.20;16.30;;;;;;;12.47;75.77;100765.69;5059209;28;20045;-62
2022/12/18 00:41:11;;;;;;;17.63;16.60;;;;;;;12.40;75.90;100750.34;5065859;28;20385;-62
2022/12/18 00:43:38;;;;;;;16.43;15.40;;;;;;;12.40;75.83;100762.38;5051016;28;20044;-62
2022/12/18 00:46:06;;;;;;;16.87;15.20;;;;;;;12.37;75.73;100768.53;5061394;28;20559;-62
2022/12/18 00:48:33;;;;;;;14.83;14.13;;;;;;;12.30;75.81;100768.00;5062311;28;20048;-62
2022/12/18 00:51:00;;;;;;;16.90;15.60;;;;;;;12.30;75.74;100771.66;5064284;28;20048;-62
2022/12/18 00:53:26;;;;;;;16.57;15.10;;;;;;;12.35;75.66;100776.41;5058393;28;20048;-63
2022/12/18 00:55:53;;;;;;;14.77;13.97;;;;;;;12.26;75.52;100766.91;5060989;28;20083;-62
2022/12/18 00:58:20;;;;;;;14.70;13.77;;;;;;;12.17;75.72;100768.63;5053736;28;20051;-62
2022/12/18 01:00:47;;;;;;;14.53;13.67;;;;;;;12.03;76.05;100758.06;5057297;28;20458;-62
2022/12/18 01:03:14;;;;;;;15.57;14.67;;;;;;;12.05;76.21;100755.81;5030497;28;20084;-61
2022/12/18 01:05:42;;;;;;;15.70;14.70;;;;;;;12.05;76.24;100749.38;5061643;28;20482;-62
2022/12/18 01:08:09;;;;;;;15.43;14.13;;;;;;;11.95;76.31;100750.25;5068260;28;20505;-62
2022/12/18 01:10:35;;;;;;;15.20;14.43;;;;;;;11.96;76.54;100751.06;5064477;28;20055;-62
2022/12/18 01:13:02;;;;;;;15.30;14.43;;;;;;;11.84;76.67;100743.84;5061268;28;20049;-62
2022/12/18 01:15:29;;;;;;;17.13;15.93;;;;;;;11.80;76.97;100730.69;5055464;28;20518;-62
2022/12/18 01:17:56;;;;;;;16.17;14.90;;;;;;;11.93;76.88;100746.03;5059584;28;20059;-62
2022/12/18 01:20:23;;;;;;;24.00;22.70;;;;;;;11.92;76.96;100731.22;5058848;28;20064;-62
2022/12/18 01:22:49;;;;;;;16.40;15.30;;;;;;;11.92;76.76;100730.38;5061382;28;20052;-62
2022/12/18 01:25:16;;;;;;;14.93;14.00;;;;;;;11.99;76.95;100728.13;5050074;28;20044;-62
2022/12/18 01:27:43;;;;;;;23.20;21.77;;;;;;;12.05;76.88;100739.00;5066246;28;20059;-62
2022/12/18 01:30:10;;;;;;;14.60;13.70;;;;;;;12.03;76.96;100730.06;5071075;28;20091;-62
2022/12/18 01:32:37;;;;;;;20.17;19.17;;;;;;;12.06;76.96;100729.47;5045555;28;20407;-62
2022/12/18 01:35:05;;;;;;;15.40;14.40;;;;;;;12.18;76.65;100725.53;5054457;28;20067;-62
2022/12/18 01:37:32;;;;;;;17.60;16.50;;;;;;;12.22;76.48;100740.63;5063542;28;20049;-62
2022/12/18 01:39:59;;;;;;;17.57;16.47;;;;;;;12.28;76.37;100736.69;5063644;28;20051;-62
2022/12/18 01:42:25;;;;;;;14.97;14.13;;;;;;;12.31;76.50;100741.72;5073438;28;20392;-61
2022/12/18 01:45:13;;;;;;;15.33;14.03;;;;;;;12.30;76.33;100738.03;5067063;28;20491;-62
2022/12/18 01:47:48;;;;;;;15.40;14.30;;;;;;;12.35;76.36;100742.81;5062709;28;20040;-62
2022/12/18 01:50:21;;;;;;;14.83;13.93;;;;;;;12.39;76.17;100729.06;5070082;28;20051;-62
2022/12/18 01:53:20;;;;;;;16.80;15.90;;;;;;;12.46;76.28;100733.22;5072371;28;20044;-62
2022/12/18 01:55:51;;;;;;;15.83;14.57;;;;;;;12.45;76.31;100725.94;5063015;28;20070;-62
2022/12/18 01:58:23;;;;;;;15.43;14.37;;;;;;;12.46;76.49;100732.38;5076948;28;20048;-61
2022/12/18 02:00:49;;;;;;;15.27;14.37;;;;;;;12.45;76.66;100736.31;5069003;28;20048;-61
2022/12/18 02:03:16;;;;;;;16.03;14.97;;;;;;;12.37;76.87;100737.72;5068999;28;20060;-62
2022/12/18 02:05:53;;;;;;;14.77;13.67;;;;;;;12.41;76.81;100729.59;5064818;28;20040;-61
2022/12/18 02:08:33;;;;;;;14.80;13.87;;;;;;;12.42;77.02;100726.53;5076407;28;20491;-62
2022/12/18 02:11:18;;;;;;;15.60;14.80;;;;;;;12.46;77.31;100729.56;5066804;28;20045;-62
2022/12/18 02:13:51;;;;;;;14.20;13.40;;;;;;;12.56;76.83;100724.75;5066167;28;20045;-62
2022/12/18 02:16:44;;;;;;;14.87;14.07;;;;;;;12.48;76.82;100722.56;5052912;28;20051;-61
2022/12/18 02:19:23;;;;;;;16.03;14.90;;;;;;;12.45;76.92;100725.94;5072178;28;20510;-63
2022/12/18 02:22:21;;;;;;;14.60;13.80;;;;;;;12.39;77.07;100721.50;5067525;28;20044;-62
2022/12/18 02:25:32;;;;;;;15.17;14.03;;;;;;;12.46;76.92;100722.00;5075698;28;20057;-62
2022/12/18 02:28:04;;;;;;;16.00;14.73;;;;;;;12.57;76.78;100728.38;5040643;28;20416;-62
2022/12/18 02:30:33;;;;;;;15.13;14.13;;;;;;;12.66;76.55;100731.44;5069613;28;20057;-63
2022/12/18 02:33:03;;;;;;;14.27;13.38;;;;;;;12.59;76.57;100725.31;5071530;28;20079;-62
2022/12/18 02:35:33;;;;;;;14.63;13.90;;;;;;;12.53;76.63;100722.53;5061468;28;20048;-62
2022/12/18 02:38:02;;;;;;;15.97;15.07;;;;;;;12.65;76.54;100736.19;5076434;28;20059;-62
2022/12/18 02:40:30;;;;;;;14.73;13.93;;;;;;;12.55;76.30;100734.28;5063071;28;20048;-63
2022/12/18 02:43:23;;;;;;;25.67;23.73;;;;;;;12.51;76.26;100736.00;5072325;28;20048;-62
2022/12/18 02:46:20;;;;;;;14.80;13.97;;;;;;;12.54;76.12;100737.38;5064520;28;20055;-63
2022/12/18 02:48:49;;;;;;;13.70;12.97;;;;;;;12.67;76.08;100750.72;5070750;28;20426;-63
2022/12/18 02:51:39;;;;;;;14.10;13.20;;;;;;;12.64;75.80;100742.91;5064714;28;20380;-64
2022/12/18 02:54:24;;;;;;;13.65;12.95;;;;;;;12.56;75.59;100735.94;5067773;28;20058;-63
2022/12/18 02:56:55;;;;;;;16.90;15.70;;;;;;;12.66;75.50;100748.22;5070799;28;20053;-62
2022/12/18 02:59:38;;;;;;;13.60;13.00;;;;;;;12.58;75.29;100735.69;5060733;28;20066;-63
2022/12/18 03:02:26;;;;;;;14.30;13.50;;;;;;;12.56;75.15;100738.75;5064405;28;20040;-63
2022/12/18 03:05:22;;;;;;;12.90;12.30;;;;;;;12.55;75.36;100741.84;5059152;28;20052;-62
2022/12/18 03:08:17;;;;;;;16.13;15.13;;;;;;;12.61;74.94;100743.47;5050270;28;20127;-63
2022/12/18 03:11:04;;;;;;;14.50;13.60;;;;;;;12.62;74.70;100753.59;5063907;28;20060;-63
2022/12/18 03:13:45;;;;;;;15.67;14.60;;;;;;;12.71;74.63;100751.00;5049001;28;20055;-62
2022/12/18 03:16:21;;;;;;;23.70;22.40;;;;;;;12.65;74.45;100752.13;5037371;28;20503;-63
2022/12/18 03:19:08;;;;;;;13.97;13.13;;;;;;;12.71;74.45;100756.59;5062175;28;20050;-62
2022/12/18 03:21:45;;;;;;;15.50;14.40;;;;;;;12.65;74.19;100741.81;5055609;28;20073;-62
2022/12/18 03:24:13;;;;;;;13.63;12.93;;;;;;;12.70;74.39;100749.31;5073315;28;20461;-62
2022/12/18 03:26:44;;;;;;;16.53;15.43;;;;;;;12.73;74.07;100757.16;5070519;28;20482;-62
2022/12/18 03:29:37;;;;;;;14.63;13.67;;;;;;;12.68;73.91;100745.97;5069411;28;20383;-62
2022/12/18 03:32:16;;;;;;;13.77;13.07;;;;;;;12.63;73.82;100735.63;5054451;28;20045;-62
2022/12/18 03:34:47;;;;;;;13.00;12.40;;;;;;;12.61;74.12;100737.03;5042351;28;20059;-62
2022/12/18 03:37:14;;;;;;;13.50;12.90;;;;;;;12.63;74.15;100748.81;5063025;28;20056;-62
2022/12/18 03:39:41;;;;;;;14.40;13.60;;;;;;;12.54;74.19;100738.19;5063153;28;20407;-62
2022/12/18 03:42:24;;;;;;;15.37;14.37;;;;;;;12.61;73.92;100748.25;5058398;28;20045;-62
2022/12/18 03:45:12;;;;;;;14.87;14.07;;;;;;;12.55;73.97;100753.91;5068610;28;20045;-62
2022/12/18 03:47:52;;;;;;;13.80;13.10;;;;;;;12.60;73.84;100743.78;5068775;28;20048;-63
2022/12/18 03:50:34;;;;;;;13.67;12.90;;;;;;;12.61;73.96;100739.84;5056236;28;20052;-62
2022/12/18 03:53:15;;;;;;;13.43;12.63;;;;;;;12.62;73.67;100730.34;5057058;28;20052;-62
2022/12/18 03:55:44;;;;;;;14.47;13.50;;;;;;;12.68;73.58;100715.13;5059530;28;20063;-62
2022/12/18 03:58:16;;;;;;;14.83;13.83;;;;;;;12.72;73.48;100735.88;5054060;28;20055;-62
2022/12/18 04:00:43;;;;;;;15.57;14.70;;;;;;;12.74;73.27;100728.81;5062725;28;20395;-62
2022/12/18 04:03:12;;;;;;;16.40;15.43;;;;;;;12.85;73.20;100740.78;5065503;28;20063;-62
2022/12/18 04:05:42;;;;;;;15.40;14.63;;;;;;;12.81;73.16;100728.50;5064339;28;20087;-62
2022/12/18 04:08:09;;;;;;;13.68;12.98;;;;;;;12.81;73.09;100734.94;5050890;28;20048;-62
2022/12/18 04:10:36;;;;;;;13.80;13.00;;;;;;;12.64;72.96;100700.88;5053484;28;20041;-61
2022/12/18 04:13:03;;;;;;;15.00;14.20;;;;;;;12.91;72.80;100736.84;5067655;28;20051;-61
2022/12/18 04:15:34;;;;;;;14.67;13.67;;;;;;;12.97;72.39;100727.25;5054827;28;20045;-62
2022/12/18 04:18:01;;;;;;;14.13;13.13;;;;;;;12.96;72.26;100725.59;5068499;28;20521;-62
2022/12/18 04:20:28;;;;;;;14.43;13.73;;;;;;;13.01;72.16;100721.91;5070674;28;20052;-61
2022/12/18 04:22:55;;;;;;;16.13;15.17;;;;;;;12.94;72.27;100719.44;5066764;28;20495;-61
2022/12/18 04:25:21;;;;;;;13.53;12.83;;;;;;;12.99;72.18;100730.63;5071550;28;20048;-61
2022/12/18 04:27:48;;;;;;;14.23;13.37;;;;;;;12.95;72.09;100723.06;5067854;28;20064;-61
2022/12/18 04:30:15;;;;;;;12.77;12.13;;;;;;;13.01;71.96;100721.91;5064312;28;20048;-62
2022/12/18 04:32:42;;;;;;;15.00;14.30;;;;;;;13.04;71.86;100722.16;5053274;28;20068;-62
2022/12/18 04:35:16;;;;;;;13.87;13.17;;;;;;;12.99;71.62;100716.59;5060878;28;20055;-62
2022/12/18 04:37:42;;;;;;;13.63;13.03;;;;;;;13.01;71.77;100711.53;5066456;28;20053;-62
2022/12/18 04:40:10;;;;;;;15.30;14.30;;;;;;;13.11;71.59;100712.56;5068717;28;20059;-61
2022/12/18 04:42:36;;;;;;;14.47;13.60;;;;;;;13.09;71.45;100720.44;5056660;28;20045;-62
2022/12/18 04:45:04;;;;;;;14.33;13.53;;;;;;;13.20;71.21;100722.03;5064503;28;20049;-62
2022/12/18 04:47:31;;;;;;;14.90;14.10;;;;;;;13.16;71.16;100720.94;5052864;28;20155;-62
2022/12/18 04:49:58;;;;;;;14.50;13.77;;;;;;;13.17;71.23;100700.19;5063629;28;20045;-61
2022/12/18 04:52:25;;;;;;;15.40;14.70;;;;;;;13.15;71.19;100717.28;5066228;28;20045;-62
2022/12/18 04:54:52;;;;;;;14.67;13.67;;;;;;;13.26;71.13;100723.69;5061652;28;20072;-62
2022/12/18 04:57:18;;;;;;;14.60;13.80;;;;;;;13.17;70.94;100714.22;5065505;28;20059;-61
2022/12/18 04:59:45;;;;;;;14.00;13.30;;;;;;;13.16;71.10;100726.53;5066183;28;20048;-62
2022/12/18 05:02:12;;;;;;;14.40;13.13;;;;;;;13.20;70.92;100720.06;5062186;28;20045;-62
2022/12/18 05:04:39;;;;;;;14.03;13.20;;;;;;;13.14;71.25;100710.03;5061490;28;20057;-62
2022/12/18 05:07:06;;;;;;;14.33;13.53;;;;;;;13.19;70.89;100709.97;5058964;28;20045;-62
2022/12/18 05:09:32;;;;;;;15.23;14.53;;;;;;;13.29;70.63;100711.88;5068115;28;20063;-61
2022/12/18 05:11:59;;;;;;;15.70;14.70;;;;;;;13.31;70.38;100715.22;5060954;28;20056;-62
2022/12/18 05:14:27;;;;;;;13.83;13.13;;;;;;;13.38;70.26;100704.50;5054997;28;20067;-61
2022/12/18 05:16:54;;;;;;;14.27;13.48;;;;;;;13.29;70.29;100717.47;5067985;28;20056;-62
2022/12/18 05:19:26;;;;;;;13.90;13.20;;;;;;;13.12;70.34;100689.00;5054196;28;20048;-62
2022/12/18 05:21:53;;;;;;;16.53;14.73;;;;;;;13.42;70.16;100728.00;5068191;28;20131;-62
2022/12/18 05:24:19;;;;;;;14.70;13.50;;;;;;;13.47;69.91;100725.19;5062702;28;20060;-62
2022/12/18 05:26:46;;;;;;;14.30;13.60;;;;;;;13.46;70.13;100729.09;5071608;28;20499;-62
2022/12/18 05:29:13;;;;;;;14.10;13.40;;;;;;;13.41;69.63;100712.31;5069412;28;20095;-62
2022/12/18 05:31:40;;;;;;;13.80;12.77;;;;;;;13.41;69.66;100715.13;5042716;28;20040;-62
2022/12/18 05:34:08;;;;;;;13.43;12.80;;;;;;;13.39;69.42;100711.78;5042322;28;20045;-62
2022/12/18 05:36:36;;;;;;;13.23;12.60;;;;;;;13.42;69.20;100725.22;5069238;28;20049;-62
2022/12/18 05:39:03;;;;;;;13.80;13.00;;;;;;;13.44;69.06;100728.56;5063053;28;20053;-62
2022/12/18 05:41:31;;;;;;;15.73;14.82;;;;;;;13.50;69.13;100723.72;5062937;28;20095;-62
2022/12/18 05:43:59;;;;;;;14.20;13.50;;;;;;;13.55;68.98;100726.50;5068234;28;20514;-62
2022/12/18 05:46:26;;;;;;;15.40;14.60;;;;;;;13.60;68.88;100739.63;5065348;28;20052;-62
2022/12/18 05:48:52;;;;;;;15.73;14.77;;;;;;;13.63;68.87;100733.41;5058396;28;20391;-62
2022/12/18 05:51:21;;;;;;;13.73;13.13;;;;;;;13.59;68.90;100723.94;5067486;28;20055;-62
2022/12/18 05:53:48;;;;;;;13.70;12.63;;;;;;;13.56;68.53;100705.72;5063984;28;20055;-62
2022/12/18 05:56:18;;;;;;;22.65;21.60;;;;;;;13.64;68.42;100735.09;5062576;28;20064;-62
2022/12/18 05:58:46;;;;;;;13.75;13.05;;;;;;;13.62;68.56;100720.53;5063703;28;20040;-62
2022/12/18 06:01:14;;;;;;;15.60;14.90;;;;;;;13.64;68.45;100715.44;5054666;28;20041;-62
2022/12/18 06:03:41;;;;;;;14.73;14.02;;;;;;;13.60;68.29;100715.19;5062892;28;20045;-61
2022/12/18 06:06:20;;;;;;;13.48;12.88;;;;;;;13.54;68.04;100707.13;5056539;28;20522;-61
2022/12/18 06:08:47;;;;;;;13.70;13.00;;;;;;;13.59;68.26;100718.31;5059223;28;20159;-61
2022/12/18 06:11:20;;;;;;;13.43;12.77;;;;;;;13.63;68.17;100706.19;5055948;28;20053;-62
2022/12/18 06:13:53;;;;;;;15.45;14.65;;;;;;;13.72;68.03;100701.59;5065701;28;20045;-62
2022/12/18 06:16:25;;;;;;;13.27;12.55;;;;;;;13.76;67.62;100704.66;5056509;28;20053;-62
2022/12/18 06:18:52;;;;;;;13.45;12.85;;;;;;;13.70;67.98;100698.25;5066325;28;20045;-61
2022/12/18 06:21:19;;;;;;;14.70;14.00;;;;;;;13.80;67.85;100716.94;5054645;28;20061;-62
2022/12/18 06:23:46;;;;;;;13.52;12.82;;;;;;;13.80;67.79;100716.94;5053019;28;20057;-63
2022/12/18 06:26:14;;;;;;;13.05;12.45;;;;;;;13.87;67.52;100708.19;5053242;28;20049;-62
2022/12/18 06:28:41;;;;;;;13.15;12.55;;;;;;;13.91;67.14;100712.91;5067241;28;20046;-63
2022/12/18 06:31:09;;;;;;;13.10;12.40;;;;;;;13.97;67.10;100716.47;5071378;28;20433;-63
2022/12/18 06:33:36;;;;;;;14.20;13.35;;;;;;;13.96;67.13;100721.25;5066587;28;20045;-63
2022/12/18 06:36:05;;;;;;;14.90;14.10;;;;;;;14.07;66.85;100723.94;5074448;28;20083;-63
2022/12/18 06:38:34;;;;;;;13.68;12.90;;;;;;;14.09;66.75;100721.69;5058611;28;20060;-62
2022/12/18 06:41:00;;;;;;;13.88;13.18;;;;;;;14.01;66.53;100736.38;5071333;28;20040;-61
2022/12/18 06:43:27;;;;;;;13.55;12.90;;;;;;;14.03;66.43;100732.13;5062629;28;20056;-61
2022/12/18 06:46:00;;;;;;;13.43;12.73;;;;;;;14.03;66.10;100698.44;5066555;28;20052;-62
2022/12/18 06:48:28;;;;;;;14.30;13.70;;;;;;;14.06;66.30;100722.28;5066522;28;20434;-61
2022/12/18 06:50:55;;;;;;;16.13;15.23;;;;;;;14.19;66.13;100741.22;5073488;28;20048;-62
2022/12/18 06:53:22;;;;;;;14.10;13.50;;;;;;;14.10;65.94;100735.41;5060110;28;20053;-62
2022/12/18 06:55:49;;;;;;;13.25;12.55;;;;;;;14.21;65.86;100752.97;5063511;28;20049;-63
2022/12/18 06:58:17;;;;;;;13.10;12.50;;;;;;;14.23;65.93;100743.09;5072312;28;20048;-62
2022/12/18 07:00:43;;;;;;;13.18;12.57;;;;;;;14.27;65.71;100743.34;5065677;28;20044;-62
2022/12/18 07:03:11;;;;;;;15.20;14.35;;;;;;;14.10;65.49;100728.97;5065606;28;20075;-61
2022/12/18 07:05:42;;;;;;;15.07;14.38;;;;;;;14.22;65.29;100763.91;5074184;28;20049;-62
2022/12/18 07:08:08;;;;;;;13.13;12.52;;;;;;;14.21;65.35;100752.97;5065750;28;20052;-62
2022/12/18 07:10:42;;;;;;;14.80;14.10;;;;;;;14.23;64.84;100753.50;5066383;28;20045;-62
2022/12/18 07:13:13;;;;;;;14.48;13.57;;;;;;;14.33;64.68;100789.91;5062693;28;20045;-62
2022/12/18 07:15:40;;;;;;;14.35;13.40;;;;;;;14.32;64.53;100785.41;5062639;28;20048;-61
2022/12/18 07:18:09;;;;;;;12.80;12.20;;;;;;;14.33;64.27;100787.09;5062021;28;20151;-62
2022/12/18 07:20:36;;;;;;;13.00;12.20;;;;;;;14.36;63.99;100766.00;5068350;28;20072;-62
2022/12/18 07:23:05;;;;;;;14.93;14.23;;;;;;;14.38;64.24;100772.97;5065192;28;20419;-62
2022/12/18 07:25:35;;;;;;;14.80;13.30;;;;;;;14.40;63.71;100770.72;5061257;28;20064;-62
2022/12/18 07:28:02;;;;;;;13.43;12.73;;;;;;;14.34;63.89;100800.00;5058914;28;20048;-61
2022/12/18 07:30:29;;;;;;;15.32;14.52;;;;;;;14.31;63.70;100754.81;5054497;28;20045;-62
2022/12/18 07:32:56;;;;;;;14.57;13.68;;;;;;;14.52;63.67;100789.97;5037447;28;20404;-62
2022/12/18 07:35:22;;;;;;;13.52;12.93;;;;;;;14.55;63.60;100794.16;5071041;28;20048;-62
2022/12/18 07:37:51;;;;;;;14.90;14.20;;;;;;;14.46;63.59;100768.66;5067548;28;20052;-62
2022/12/18 07:40:18;;;;;;;13.40;12.80;;;;;;;14.49;63.80;100784.06;5065855;28;20048;-62
2022/12/18 07:42:45;;;;;;;14.68;13.98;;;;;;;14.54;63.48;100800.91;5063406;28;20049;-62
2022/12/18 07:45:11;;;;;;;13.98;13.27;;;;;;;14.46;63.98;100786.38;5066696;28;20052;-62
2022/12/18 07:47:38;;;;;;;15.82;15.13;;;;;;;14.48;64.03;100779.59;5043671;28;20045;-62
2022/12/18 07:50:06;;;;;;;15.88;15.18;;;;;;;14.50;64.57;100785.75;5064182;28;20415;-62
2022/12/18 07:52:33;;;;;;;16.38;15.60;;;;;;;14.50;64.47;100808.25;5067638;28;20041;-62
2022/12/18 07:55:00;;;;;;;14.10;13.40;;;;;;;14.51;64.97;100807.13;5049265;28;20070;-62
2022/12/18 07:57:27;;;;;;;15.88;15.07;;;;;;;14.59;64.79;100806.44;5065732;28;20052;-62
2022/12/18 08:00:14;;;;;;;14.80;14.20;;;;;;;14.37;64.86;100773.28;5056876;28;20051;-62
2022/12/18 08:02:41;;;;;;;24.25;23.15;;;;;;;14.54;65.45;100823.41;5062197;28;20048;-62
2022/12/18 08:05:08;;;;;;;14.70;14.00;;;;;;;14.60;65.62;100820.22;5062517;28;20048;-62
2022/12/18 08:07:35;;;;;;;16.50;15.45;;;;;;;14.60;65.45;100785.66;5065229;28;20419;-62
2022/12/18 08:10:02;;;;;;;15.05;14.35;;;;;;;14.59;65.60;100795.22;5064337;28;20048;-63
2022/12/18 08:12:29;;;;;;;14.43;13.73;;;;;;;14.54;65.63;100818.59;5067427;28;20139;-63
2022/12/18 08:14:56;;;;;;;15.65;14.88;;;;;;;14.52;66.11;100808.81;5064595;28;20048;-63
2022/12/18 08:17:23;;;;;;;15.85;14.85;;;;;;;14.51;66.10;100815.56;5063028;28;20063;-63
2022/12/18 08:19:49;;;;;;;16.02;15.27;;;;;;;14.53;66.50;100804.84;5067132;28;20044;-62
2022/12/18 08:22:16;;;;;;;14.38;13.45;;;;;;;14.50;66.64;100841.97;5057495;28;20056;-63
2022/12/18 08:24:43;;;;;;;13.82;13.13;;;;;;;14.51;66.63;100843.66;5062184;28;20081;-62
2022/12/18 08:27:10;;;;;;;12.82;11.90;;;;;;;14.56;66.59;100812.66;5067884;28;20053;-61
2022/12/18 08:29:55;;;;;;;12.13;11.43;;;;;;;14.58;66.70;100835.72;5065453;28;20582;-62
2022/12/18 08:32:22;;;;;;;11.90;11.30;;;;;;;14.68;66.67;100860.88;5065896;28;20049;-62
2022/12/18 08:34:49;;;;;;;12.25;11.63;;;;;;;14.64;66.30;100831.69;5063525;28;20389;-61
2022/12/18 08:37:15;;;;;;;13.57;12.85;;;;;;;14.66;66.54;100812.53;5055940;28;20056;-63
2022/12/18 08:39:42;;;;;;;12.90;12.10;;;;;;;14.68;66.69;100818.72;5065281;28;20056;-62
2022/12/18 08:44:55;;;;;;;13.77;13.18;;;;;;;14.67;66.76;100831.09;5063859;28;20053;-62
2022/12/18 08:47:22;;;;;;;13.98;13.27;;;;;;;14.59;66.92;100812.91;5060997;28;20056;-62
2022/12/18 08:49:49;;;;;;;13.48;12.77;;;;;;;14.62;66.69;100803.03;5042052;28;20059;-62
2022/12/18 08:52:15;;;;;;;13.85;12.63;;;;;;;14.54;66.98;100806.53;5070379;28;20048;-61
2022/12/18 08:54:42;;;;;;;13.10;12.48;;;;;;;14.61;66.94;100804.19;5062033;28;20056;-62
2022/12/18 08:57:09;;;;;;;12.60;12.00;;;;;;;14.59;66.90;100801.66;5045155;28;20056;-62
2022/12/18 08:59:36;;;;;;;13.05;12.35;;;;;;;14.68;66.55;100813.91;5042460;28;20045;-62
2022/12/18 09:02:02;;;;;;;13.50;12.63;;;;;;;14.63;66.85;100808.38;5060146;28;20048;-62
2022/12/18 09:04:29;;;;;;;13.52;12.73;;;;;;;14.63;66.88;100787.84;5054295;28;20064;-62
2022/12/18 09:06:56;;;;;;;14.02;13.43;;;;;;;14.65;66.65;100822.13;5052853;28;20049;-63
2022/12/18 09:09:23;;;;;;;12.93;12.32;;;;;;;14.66;66.60;100835.03;5065319;28;20045;-61
2022/12/18 09:11:50;;;;;;;14.43;13.52;;;;;;;14.78;66.62;100843.88;5072076;28;20048;-63
2022/12/18 09:14:16;;;;;;;13.55;12.70;;;;;;;14.78;66.17;100835.44;5036804;28;20585;-62
2022/12/18 09:16:43;;;;;;;13.43;12.82;;;;;;;14.72;66.51;100818.94;5071144;28;20075;-62
2022/12/18 09:19:10;;;;;;;15.75;14.95;;;;;;;14.72;66.31;100833.00;5072983;28;20114;-62
2022/12/18 09:21:38;;;;;;;14.30;13.32;;;;;;;14.69;66.63;100811.94;5072918;28;20044;-62
2022/12/18 09:24:13;;;;;;;14.07;13.27;;;;;;;14.72;66.60;100814.16;5069288;28;20131;-63
2022/12/18 09:26:40;;;;;;;13.40;12.80;;;;;;;14.73;66.35;100817.78;5078404;28;20043;-62
2022/12/18 09:29:09;;;;;;;13.43;12.82;;;;;;;14.85;66.20;100827.47;5079130;28;20092;-62
2022/12/18 09:31:36;;;;;;;13.55;12.57;;;;;;;14.88;66.17;100821.22;5079765;28;20131;-62
2022/12/18 09:34:06;;;;;;;13.48;12.88;;;;;;;14.89;66.03;100822.91;5082266;28;20143;-62
2022/12/18 09:36:33;;;;;;;13.30;12.70;;;;;;;14.89;65.95;100851.00;5086569;28;20044;-62
2022/12/18 09:38:59;;;;;;;13.32;12.73;;;;;;;14.94;66.05;100833.25;5084530;28;20049;-61
2022/12/18 09:41:39;;;;;;;16.30;13.55;;;;;;;15.02;65.75;100842.97;5074925;28;20136;-62
2022/12/18 09:44:14;;;;;;;13.40;12.70;;;;;;;14.98;65.72;100841.94;5086602;28;20045;-61
2022/12/18 09:46:45;;;;;;;19.80;18.80;;;;;;;14.84;66.06;100842.66;5085907;28;20056;-62
2022/12/18 09:49:18;;;;;;;13.40;12.80;;;;;;;14.88;66.08;100832.47;5081331;28;20127;-62
2022/12/18 09:52:03;;;;;;;13.32;12.65;;;;;;;14.97;66.08;100852.31;5090673;28;20070;-63
2022/12/18 09:54:42;;;;;;;13.25;12.55;;;;;;;15.03;65.89;100865.16;5075624;28;20048;-63
2022/12/18 09:57:21;;;;;;;14.40;13.52;;;;;;;15.02;65.61;100842.97;5083292;28;20044;-63
2022/12/18 09:59:54;;;;;;;14.38;13.57;;;;;;;15.02;65.83;100821.31;5076557;28;20044;-62
2022/12/18 10:02:26;;;;;;;14.18;13.30;;;;;;;15.09;65.30;100849.06;5085353;28;20051;-63
2022/12/18 10:05:11;;;;;;;13.98;13.18;;;;;;;15.07;65.17;100857.78;5095731;28;20457;-62
2022/12/18 10:07:56;;;;;;;15.07;14.20;;;;;;;15.12;64.98;100854.09;5076984;28;20048;-62
2022/12/18 10:10:32;;;;;;;14.18;13.48;;;;;;;15.16;64.61;100832.63;5080955;28;20059;-63
2022/12/18 10:13:16;;;;;;;14.73;13.98;;;;;;;15.09;64.73;100835.00;5084472;28;20046;-62
2022/12/18 10:16:07;;;;;;;20.58;19.58;;;;;;;15.06;64.28;100844.03;5078118;28;20541;-62
2022/12/18 10:18:58;;;;;;;21.20;20.17;;;;;;;15.15;63.99;100842.22;5080827;28;20087;-62
2022/12/18 10:21:35;;;;;;;12.90;12.30;;;;;;;15.14;64.10;100846.16;5084064;28;20050;-62
2022/12/18 10:24:37;;;;;;;14.48;13.85;;;;;;;15.19;64.02;100843.28;5079589;28;20411;-62
2022/12/18 10:27:30;;;;;;;13.48;12.88;;;;;;;15.18;63.40;100869.75;5064324;28;20507;-61
2022/12/18 10:30:00;;;;;;;13.50;12.90;;;;;;;15.26;63.51;100860.63;5058439;28;20056;-62
2022/12/18 10:32:30;;;;;;;13.98;13.07;;;;;;;15.26;63.04;100863.44;5057099;28;20381;-62
2022/12/18 10:34:57;;;;;;;15.13;14.25;;;;;;;15.22;62.91;100869.97;5067364;28;20049;-62
2022/12/18 10:37:29;;;;;;;14.32;13.23;;;;;;;15.24;62.94;100868.50;5056018;28;20059;-62
2022/12/18 10:40:13;;;;;;;14.15;13.38;;;;;;;15.28;62.91;100871.56;5070383;28;20044;-62
2022/12/18 10:43:20;;;;;;;18.88;18.05;;;;;;;15.24;62.23;100893.84;5065781;28;20045;-62
2022/12/18 10:46:08;;;;;;;20.35;19.48;;;;;;;15.27;62.09;100887.59;5064562;28;20040;-62
2022/12/18 10:48:39;;;;;;;14.43;13.65;;;;;;;15.30;62.42;100894.59;5062868;28;20094;-62
2022/12/18 10:51:07;;;;;;;14.27;13.48;;;;;;;15.32;62.55;100889.53;5068142;28;20051;-62
2022/12/18 10:53:42;;;;;;;15.13;14.07;;;;;;;15.27;62.67;100851.03;5069548;28;20055;-62
2022/12/18 10:56:10;;;;;;;14.30;13.63;;;;;;;15.26;62.68;100838.13;5064162;28;20420;-61
2022/12/18 10:58:38;;;;;;;16.70;15.90;;;;;;;15.36;62.43;100877.34;5072614;28;20052;-61
2022/12/18 11:01:09;;;;;;;13.77;13.07;;;;;;;15.32;62.86;100870.66;5060360;28;20150;-62
2022/12/18 11:03:40;;;;;;;14.23;13.45;;;;;;;15.36;63.00;100894.22;5050852;28;20040;-61
2022/12/18 11:06:15;;;;;;;14.38;13.60;;;;;;;15.35;63.04;100843.88;5059805;28;20072;-62
2022/12/18 11:08:44;;;;;;;14.30;13.60;;;;;;;15.44;63.15;100855.28;5061985;28;20056;-62
2022/12/18 11:11:31;;;;;;;15.15;14.10;;;;;;;15.51;62.46;100866.97;5064189;28;20503;-62
2022/12/18 11:14:19;;;;;;;16.20;15.35;;;;;;;15.59;62.60;100849.41;5067415;28;20140;-62
2022/12/18 11:16:48;;;;;;;18.98;17.95;;;;;;;15.59;62.46;100847.44;5066358;28;20055;-62
2022/12/18 11:19:40;;;;;;;14.70;14.00;;;;;;;15.66;62.64;100835.81;5062999;28;20049;-61
2022/12/18 11:22:26;;;;;;;13.70;13.10;;;;;;;15.57;62.64;100834.81;5070005;28;20045;-62
2022/12/18 11:25:03;;;;;;;15.23;14.30;;;;;;;15.59;62.35;100874.75;5059023;28;20041;-62
2022/12/18 11:27:56;;;;;;;14.55;13.60;;;;;;;15.55;62.27;100839.88;5068549;28;20048;-62
2022/12/18 11:30:23;;;;;;;14.40;13.70;;;;;;;15.64;62.11;100821.16;5066982;28;20063;-62
2022/12/18 11:33:03;;;;;;;14.30;13.60;;;;;;;15.63;62.13;100828.78;5063660;28;20051;-62